Terminal Aerodrome Forecast
Issued by NWS

Home | Current Version | Previous Version | Text Only | Print | Product List | Glossary On
Versions: 1 2 3 4 5 6 7 8 9 10 11 12 13 14 15 16 17 18 19 20
000
FTUS43 KGRR 031130
TAFLAN
TAF
KLAN 031130Z 0312/0412 19004KT 2SM BR SCT050
     FM031300 21005KT 5SM SHRA BR VCTS OVC040CB
     FM031500 24006KT P6SM VCTS BKN040CB
     FM032300 13006KT P6SM VCSH BKN050
     FM040600 08003KT 2SM BR BKN009=

USA.gov is the U.S. government's official web portal to all federal, state and local government web resources and services.